createdAt,value
2017-07-05T00:01:19.915Z,3.73
2017-07-05T00:03:47.496Z,4.00
2017-07-05T00:06:15.083Z,3.00
2017-07-05T00:08:43.421Z,3.90
2017-07-05T00:11:10.992Z,3.20
2017-07-05T00:13:38.569Z,3.90
2017-07-05T00:16:07.223Z,3.70
2017-07-05T00:18:34.799Z,3.97
2017-07-05T00:21:02.377Z,4.17
2017-07-05T00:23:30.731Z,4.23
2017-07-05T00:25:58.307Z,4.00
2017-07-05T00:28:26.665Z,4.00
2017-07-05T00:30:54.227Z,4.10
2017-07-05T00:33:22.077Z,4.00
2017-07-05T00:35:49.662Z,4.40
2017-07-05T00:38:17.983Z,3.77
2017-07-05T00:40:45.559Z,3.50
2017-07-05T00:43:13.125Z,3.97
2017-07-05T00:45:40.717Z,3.97
2017-07-05T00:48:08.300Z,4.20
2017-07-05T00:50:36.201Z,3.80
2017-07-05T00:53:03.783Z,4.43
2017-07-05T00:55:31.347Z,3.63
2017-07-05T00:57:58.978Z,4.10
2017-07-05T01:00:26.547Z,3.70
2017-07-05T01:02:54.411Z,4.57
2017-07-05T01:05:21.971Z,3.80
2017-07-05T01:07:49.530Z,4.27
2017-07-05T01:10:17.106Z,3.83
2017-07-05T01:12:44.666Z,3.63
2017-07-05T01:15:12.520Z,3.83
2017-07-05T01:17:40.109Z,4.70
2017-07-05T01:20:08.438Z,4.27
2017-07-05T01:22:36.023Z,3.67
2017-07-05T01:25:03.586Z,3.13
2017-07-05T01:27:31.169Z,4.00
2017-07-05T01:29:59.512Z,4.07
2017-07-05T01:32:27.465Z,3.70
2017-07-05T01:34:55.028Z,4.57
2017-07-05T01:37:22.589Z,3.50
2017-07-05T01:39:50.174Z,4.07
2017-07-05T01:42:17.993Z,4.17
2017-07-05T01:44:45.572Z,3.87
2017-07-05T01:47:13.164Z,3.83
2017-07-05T01:49:41.509Z,4.10
2017-07-05T01:52:09.086Z,4.60
2017-07-05T01:54:37.027Z,4.20
2017-07-05T01:57:04.599Z,4.07
2017-07-05T01:59:32.182Z,4.13
2017-07-05T02:02:00.124Z,3.93
2017-07-05T02:04:27.687Z,4.60
2017-07-05T02:06:55.281Z,3.20
2017-07-05T02:09:23.631Z,4.20
2017-07-05T02:11:51.218Z,4.00
2017-07-05T02:14:18.825Z,4.30
2017-07-05T02:16:46.397Z,3.83
2017-07-05T02:19:14.260Z,4.53
2017-07-05T02:21:41.814Z,4.30
2017-07-05T02:24:09.397Z,3.53
2017-07-05T02:26:36.972Z,3.77
2017-07-05T02:29:05.303Z,3.87
2017-07-05T02:31:32.862Z,4.20
2017-07-05T02:34:00.412Z,4.53
2017-07-05T02:36:27.990Z,4.10
2017-07-05T02:38:55.565Z,4.10
2017-07-05T02:41:23.140Z,4.03
2017-07-05T02:43:51.468Z,3.90
2017-07-05T02:46:19.047Z,4.50
2017-07-05T02:48:46.633Z,3.90
2017-07-05T02:51:14.991Z,3.90
2017-07-05T02:53:42.563Z,3.30
2017-07-05T02:56:10.916Z,3.37
2017-07-05T02:58:38.479Z,4.10
2017-07-05T03:01:06.063Z,3.60
2017-07-05T03:03:33.641Z,5.03
2017-07-05T03:06:01.228Z,3.70
2017-07-05T03:08:28.801Z,3.80
2017-07-05T03:10:56.393Z,4.27
2017-07-05T03:13:23.959Z,4.17
2017-07-05T03:15:52.312Z,4.57
2017-07-05T03:18:19.893Z,4.30
2017-07-05T03:20:47.463Z,3.93
2017-07-05T03:23:15.811Z,3.63
2017-07-05T03:25:43.415Z,3.80
2017-07-05T03:28:10.981Z,3.60
2017-07-05T03:30:38.560Z,4.10
2017-07-05T03:33:06.161Z,4.43
2017-07-05T03:35:33.782Z,4.27
2017-07-05T03:38:01.390Z,3.93
2017-07-05T03:40:29.760Z,3.53
2017-07-05T03:42:57.339Z,4.63
2017-07-05T03:45:25.675Z,3.50
2017-07-05T03:47:53.258Z,3.90
2017-07-05T03:50:20.837Z,3.80
2017-07-05T03:52:48.420Z,4.10
2017-07-05T03:55:16.005Z,3.57
2017-07-05T03:57:43.591Z,4.40
2017-07-05T04:00:11.148Z,3.90
2017-07-05T04:02:38.719Z,3.80
2017-07-05T04:05:06.289Z,4.67
2017-07-05T04:07:33.866Z,3.90
2017-07-05T04:10:01.432Z,4.57
2017-07-05T04:12:29.031Z,4.30
2017-07-05T04:14:56.648Z,4.33
2017-07-05T04:17:24.221Z,4.10
2017-07-05T04:19:51.797Z,4.20
2017-07-05T04:22:20.082Z,3.93
2017-07-05T04:24:47.657Z,3.70
2017-07-05T04:27:15.228Z,3.90
2017-07-05T04:29:43.555Z,4.47
2017-07-05T04:32:11.129Z,3.47
2017-07-05T04:34:38.686Z,3.90
2017-07-05T04:37:06.254Z,3.63
2017-07-05T04:39:33.805Z,3.90
2017-07-05T04:42:01.373Z,4.50
2017-07-05T04:44:28.945Z,4.50
2017-07-05T04:46:57.292Z,3.70
2017-07-05T04:49:24.848Z,3.50
2017-07-05T04:51:52.421Z,4.50
2017-07-05T04:54:19.984Z,4.13
2017-07-05T04:56:47.561Z,3.67
2017-07-05T04:59:15.142Z,4.20
2017-07-05T05:01:42.706Z,4.30
2017-07-05T05:04:10.288Z,3.93
2017-07-05T05:06:37.851Z,3.27
2017-07-05T05:09:05.410Z,3.60
2017-07-05T05:11:32.958Z,3.70
2017-07-05T05:14:00.529Z,3.30
2017-07-05T05:16:28.977Z,3.80
2017-07-05T05:18:56.538Z,3.40
2017-07-05T05:21:24.093Z,3.00
2017-07-05T05:23:51.667Z,3.07
2017-07-05T05:26:19.245Z,3.17
2017-07-05T05:28:46.849Z,3.30
2017-07-05T05:31:15.167Z,3.70
2017-07-05T05:33:42.758Z,2.60
2017-07-05T05:36:10.352Z,3.87
2017-07-05T05:38:38.705Z,3.33
2017-07-05T05:41:06.300Z,3.20
2017-07-05T05:43:33.889Z,3.00
2017-07-05T05:46:01.448Z,2.70
2017-07-05T05:48:29.028Z,2.97
2017-07-05T05:50:56.581Z,3.07
2017-07-05T05:53:24.187Z,2.93
2017-07-05T05:55:52.542Z,2.50
2017-07-05T05:58:20.134Z,2.67
2017-07-05T06:00:47.696Z,3.07
2017-07-05T06:03:15.295Z,2.67
2017-07-05T06:05:42.845Z,2.80
2017-07-05T06:08:10.413Z,2.80
2017-07-05T06:10:37.987Z,2.77
2017-07-05T06:13:05.579Z,2.83
2017-07-05T06:15:33.151Z,2.77
2017-07-05T06:18:00.723Z,2.90
2017-07-05T06:20:28.291Z,2.67
2017-07-05T06:22:55.884Z,2.90
2017-07-05T06:25:23.443Z,2.87
2017-07-05T06:27:51.409Z,2.97
2017-07-05T06:30:18.975Z,2.60
2017-07-05T06:32:46.558Z,3.10
2017-07-05T06:35:14.893Z,2.97
2017-07-05T06:37:42.457Z,2.63
2017-07-05T06:40:10.049Z,2.47
2017-07-05T06:42:37.620Z,2.63
2017-07-05T06:45:05.247Z,2.67
2017-07-05T06:47:32.815Z,2.60
2017-07-05T06:50:00.455Z,3.00
2017-07-05T06:52:28.045Z,2.73
2017-07-05T06:54:56.382Z,2.43
2017-07-05T06:57:23.957Z,2.93
2017-07-05T06:59:51.546Z,2.73
2017-07-05T07:02:20.719Z,2.60
2017-07-05T07:04:48.283Z,2.90
2017-07-05T07:07:15.842Z,2.80
2017-07-05T07:09:43.426Z,2.70
2017-07-05T07:12:11.766Z,2.63
2017-07-05T07:14:39.419Z,3.00
2017-07-05T07:17:06.987Z,2.40
2017-07-05T07:19:34.586Z,2.70
2017-07-05T07:22:02.137Z,3.30
2017-07-05T07:24:30.474Z,2.83
2017-07-05T07:26:58.027Z,2.50
2017-07-05T07:29:25.591Z,2.47
2017-07-05T07:31:53.164Z,2.30
2017-07-05T07:34:20.752Z,2.70
2017-07-05T07:36:49.089Z,2.80
2017-07-05T07:39:16.662Z,3.00
2017-07-05T07:41:44.309Z,2.87
2017-07-05T07:44:11.888Z,2.77
2017-07-05T07:46:39.496Z,2.50
2017-07-05T07:49:07.087Z,2.63
2017-07-05T07:51:34.653Z,3.03
2017-07-05T07:54:02.236Z,3.20
2017-07-05T07:56:30.554Z,2.63
2017-07-05T07:58:58.430Z,3.20
2017-07-05T08:01:26.009Z,2.83
2017-07-05T08:03:53.563Z,2.57
2017-07-05T08:06:21.165Z,2.80
2017-07-05T08:08:49.555Z,3.10
2017-07-05T08:11:17.141Z,2.60
2017-07-05T08:13:44.719Z,3.10
2017-07-05T08:16:12.305Z,2.93
2017-07-05T08:18:40.629Z,2.50
2017-07-05T08:21:08.225Z,2.53
2017-07-05T08:23:35.785Z,2.87
2017-07-05T08:26:03.360Z,2.90
2017-07-05T08:28:31.683Z,2.77
2017-07-05T08:30:59.274Z,2.97
2017-07-05T08:33:26.837Z,3.40
2017-07-05T08:35:54.418Z,3.10
2017-07-05T08:38:22.735Z,3.23
2017-07-05T08:40:50.303Z,2.23
2017-07-05T08:43:17.879Z,2.17
2017-07-05T08:45:45.449Z,2.37
2017-07-05T08:48:13.015Z,2.90
2017-07-05T08:50:40.589Z,2.17
2017-07-05T08:53:08.915Z,2.90
2017-07-05T08:55:36.496Z,2.60
2017-07-05T08:58:04.068Z,2.67
2017-07-05T09:00:31.666Z,2.60
2017-07-05T09:02:59.242Z,2.20
2017-07-05T09:05:26.811Z,2.53
2017-07-05T09:07:54.371Z,2.37
2017-07-05T09:10:21.941Z,2.63
2017-07-05T09:12:49.533Z,2.40
2017-07-05T09:15:17.112Z,2.53
2017-07-05T09:17:44.693Z,2.80
2017-07-05T09:20:12.270Z,2.47
2017-07-05T09:22:39.859Z,2.40
2017-07-05T09:25:08.242Z,2.43
2017-07-05T09:27:35.807Z,2.70
2017-07-05T09:30:04.458Z,2.57
2017-07-05T09:32:32.054Z,2.57
2017-07-05T09:35:00.394Z,2.60
2017-07-05T09:37:27.962Z,2.27
2017-07-05T09:39:55.528Z,3.03
2017-07-05T09:42:23.098Z,2.30
2017-07-05T09:44:50.665Z,2.77
2017-07-05T09:47:19.015Z,2.67
2017-07-05T09:49:46.570Z,2.10
2017-07-05T09:52:14.149Z,2.67
2017-07-05T09:54:41.732Z,2.13
2017-07-05T09:57:09.312Z,2.50
2017-07-05T09:59:36.894Z,2.50
2017-07-05T10:02:04.475Z,2.10
2017-07-05T10:04:32.052Z,2.10
2017-07-05T10:07:00.398Z,2.30
2017-07-05T10:09:27.961Z,2.07
2017-07-05T10:11:55.550Z,2.97
2017-07-05T10:14:23.893Z,2.30
2017-07-05T10:16:51.482Z,2.20
2017-07-05T10:19:19.043Z,2.50
2017-07-05T10:21:47.401Z,2.30
2017-07-05T10:24:14.987Z,2.70
2017-07-05T10:26:42.567Z,2.90
2017-07-05T10:29:10.132Z,2.37
2017-07-05T10:31:37.709Z,2.20
2017-07-05T10:34:05.262Z,2.40
2017-07-05T10:36:32.833Z,2.70
2017-07-05T10:39:00.382Z,2.63
2017-07-05T10:41:28.956Z,2.17
2017-07-05T10:43:56.527Z,2.50
2017-07-05T10:46:24.097Z,2.37
2017-07-05T10:48:51.679Z,2.27
2017-07-05T10:51:19.257Z,2.43
2017-07-05T10:53:46.831Z,2.57
2017-07-05T10:56:14.458Z,2.10
2017-07-05T10:58:42.789Z,2.13
2017-07-05T11:01:10.681Z,2.13
2017-07-05T11:03:38.266Z,2.77
2017-07-05T11:06:06.640Z,2.23
2017-07-05T11:08:35.011Z,2.63
2017-07-05T11:11:02.587Z,2.43
2017-07-05T11:13:30.961Z,2.47
2017-07-05T11:15:59.308Z,2.50
2017-07-05T11:18:26.901Z,2.50
2017-07-05T11:20:55.228Z,2.80
2017-07-05T11:23:22.817Z,2.60
2017-07-05T11:25:50.370Z,2.60
2017-07-05T11:28:17.960Z,2.50
2017-07-05T11:30:46.283Z,2.63
2017-07-05T11:33:13.879Z,2.90
2017-07-05T11:35:42.302Z,2.30
2017-07-05T11:38:09.913Z,2.40
2017-07-05T11:40:37.482Z,2.20
2017-07-05T11:43:05.090Z,2.50
2017-07-05T11:45:32.666Z,2.60
2017-07-05T11:48:00.235Z,2.80
2017-07-05T11:50:27.802Z,2.50
2017-07-05T11:52:55.379Z,2.07
2017-07-05T11:55:23.732Z,2.20
2017-07-05T11:57:51.337Z,2.13
2017-07-05T12:00:18.920Z,2.30
2017-07-05T12:02:46.530Z,2.30
2017-07-05T12:05:14.888Z,2.70
2017-07-05T12:07:42.479Z,2.30
2017-07-05T12:10:10.045Z,2.30
2017-07-05T12:12:37.646Z,2.50
2017-07-05T12:15:05.218Z,2.40
2017-07-05T12:17:32.788Z,1.90
2017-07-05T12:20:00.357Z,2.50
2017-07-05T12:22:27.924Z,2.40
2017-07-05T12:24:56.259Z,2.50
2017-07-05T12:27:23.858Z,2.37
2017-07-05T12:29:52.183Z,1.90
2017-07-05T12:32:20.499Z,1.97
2017-07-05T12:34:48.081Z,2.00
2017-07-05T12:37:16.405Z,2.50
2017-07-05T12:39:43.996Z,2.70
2017-07-05T12:42:12.351Z,2.47
2017-07-05T12:44:39.925Z,2.13
2017-07-05T12:47:07.488Z,2.00
2017-07-05T12:49:35.051Z,2.13
2017-07-05T12:52:03.384Z,2.10
2017-07-05T12:54:30.945Z,2.20
2017-07-05T12:56:58.514Z,2.10
2017-07-05T12:59:26.139Z,2.60
2017-07-05T13:01:53.705Z,2.40
2017-07-05T13:04:21.316Z,2.33
2017-07-05T13:06:48.924Z,2.27
2017-07-05T13:09:16.487Z,1.93
2017-07-05T13:11:44.035Z,2.40
2017-07-05T13:14:11.634Z,2.70
2017-07-05T13:16:39.189Z,2.17
2017-07-05T13:19:06.754Z,2.30
2017-07-05T13:21:34.348Z,2.20
2017-07-05T13:24:02.694Z,2.40
2017-07-05T13:26:30.287Z,2.40
2017-07-05T13:28:57.869Z,1.90
2017-07-05T13:31:25.470Z,2.70
2017-07-05T13:33:53.072Z,2.47
2017-07-05T13:36:20.647Z,2.20
2017-07-05T13:38:48.268Z,2.97
2017-07-05T13:41:15.831Z,2.70
2017-07-05T13:43:44.179Z,2.37
2017-07-05T13:46:11.748Z,2.30
2017-07-05T13:48:39.331Z,2.00
2017-07-05T13:51:06.900Z,2.67
2017-07-05T13:53:35.263Z,2.73
2017-07-05T13:56:02.829Z,2.70
2017-07-05T13:58:30.443Z,2.27
2017-07-05T14:00:58.013Z,2.40
2017-07-05T14:03:25.883Z,2.47
2017-07-05T14:05:53.530Z,2.20
2017-07-05T14:08:21.092Z,2.40
2017-07-05T14:10:48.690Z,2.13
2017-07-05T14:13:16.267Z,2.50
2017-07-05T14:15:43.832Z,2.57
2017-07-05T14:18:11.406Z,2.47
2017-07-05T14:20:38.980Z,2.30
2017-07-05T14:23:06.538Z,2.30
2017-07-05T14:25:34.140Z,2.40
2017-07-05T14:28:02.475Z,2.07
2017-07-05T14:30:30.142Z,1.93
2017-07-05T14:32:57.697Z,2.30
2017-07-05T14:35:25.275Z,1.87
2017-07-05T14:37:52.867Z,2.10
2017-07-05T14:40:20.494Z,2.30
2017-07-05T14:42:48.065Z,2.83
2017-07-05T14:45:16.396Z,2.70
2017-07-05T14:47:43.974Z,2.57
2017-07-05T14:50:11.554Z,2.50
2017-07-05T14:52:39.109Z,1.80
2017-07-05T14:55:06.694Z,1.67
2017-07-05T14:57:34.283Z,2.20
2017-07-05T15:00:01.882Z,2.80
2017-07-05T15:02:29.441Z,2.33
2017-07-05T15:04:57.032Z,2.50
2017-07-05T15:07:24.587Z,2.37
2017-07-05T15:09:52.177Z,1.90
2017-07-05T15:12:19.752Z,2.40
2017-07-05T15:14:47.340Z,2.40
2017-07-05T15:17:14.942Z,1.70
2017-07-05T15:19:42.526Z,2.40
2017-07-05T15:22:10.094Z,2.30
2017-07-05T15:24:37.666Z,2.00
2017-07-05T15:27:05.230Z,2.27
2017-07-05T15:29:32.808Z,2.40
2017-07-05T15:32:01.152Z,2.10
2017-07-05T15:34:28.738Z,2.20
2017-07-05T15:36:57.084Z,2.43
2017-07-05T15:39:24.648Z,2.50
2017-07-05T15:41:52.273Z,2.70
2017-07-05T15:44:19.842Z,2.30
2017-07-05T15:46:47.419Z,2.90
2017-07-05T15:49:14.987Z,2.07
2017-07-05T15:51:42.571Z,2.40
2017-07-05T15:54:10.190Z,2.70
2017-07-05T15:56:37.779Z,2.60
2017-07-05T15:59:05.340Z,2.47
2017-07-05T16:01:32.921Z,2.63
2017-07-05T16:04:01.273Z,2.73
2017-07-05T16:06:28.840Z,2.70
2017-07-05T16:08:56.416Z,2.60
2017-07-05T16:11:24.782Z,2.80
2017-07-05T16:13:52.363Z,3.00
2017-07-05T16:16:19.954Z,2.77
2017-07-05T16:18:47.516Z,2.67
2017-07-05T16:21:15.100Z,2.83
2017-07-05T16:23:42.673Z,2.50
2017-07-05T16:26:10.284Z,2.87
2017-07-05T16:28:37.865Z,2.50
2017-07-05T16:31:05.453Z,2.67
2017-07-05T16:33:33.769Z,2.80
2017-07-05T16:36:01.355Z,2.50
2017-07-05T16:38:28.924Z,2.47
2017-07-05T16:40:56.501Z,2.37
2017-07-05T16:43:24.094Z,2.67
2017-07-05T16:45:52.021Z,2.63
2017-07-05T16:48:19.581Z,2.43
2017-07-05T16:50:47.132Z,2.57
2017-07-05T16:53:14.714Z,2.30
2017-07-05T16:55:42.273Z,2.70
2017-07-05T16:58:10.595Z,2.83
2017-07-05T17:00:38.159Z,2.13
2017-07-05T17:03:05.722Z,2.90
2017-07-05T17:05:33.291Z,2.50
2017-07-05T17:08:01.174Z,2.87
2017-07-05T17:10:28.750Z,3.03
2017-07-05T17:12:57.097Z,2.33
2017-07-05T17:15:24.683Z,2.60
2017-07-05T17:17:53.018Z,2.33
2017-07-05T17:20:20.597Z,2.70
2017-07-05T17:22:48.176Z,2.20
2017-07-05T17:25:15.743Z,2.30
2017-07-05T17:27:44.087Z,3.33
2017-07-05T17:30:12.055Z,2.60
2017-07-05T17:32:39.629Z,3.57
2017-07-05T17:35:07.208Z,2.47
2017-07-05T17:37:35.554Z,3.20
2017-07-05T17:40:03.148Z,2.20
2017-07-05T17:42:31.505Z,2.57
2017-07-05T17:44:59.842Z,2.70
2017-07-05T17:47:27.724Z,3.20
2017-07-05T17:49:55.310Z,3.10
2017-07-05T17:52:22.877Z,2.90
2017-07-05T17:54:50.469Z,2.70
2017-07-05T17:57:18.171Z,3.17
2017-07-05T17:59:45.832Z,2.30
2017-07-05T18:02:13.396Z,2.70
2017-07-05T18:04:40.976Z,3.17
2017-07-05T18:07:08.550Z,2.73
2017-07-05T18:09:36.139Z,3.07
2017-07-05T18:12:03.695Z,3.00
2017-07-05T18:14:31.586Z,2.93
2017-07-05T18:16:59.139Z,3.10
2017-07-05T18:19:26.708Z,3.20
2017-07-05T18:21:54.415Z,3.10
2017-07-05T18:24:22.003Z,3.17
2017-07-05T18:26:49.591Z,3.03
2017-07-05T18:29:17.147Z,2.70
2017-07-05T18:31:44.713Z,3.17
2017-07-05T18:34:12.271Z,3.10
2017-07-05T18:36:39.849Z,3.53
2017-07-05T18:39:08.203Z,3.67
2017-07-05T18:41:35.798Z,3.03
2017-07-05T18:44:03.395Z,2.73
2017-07-05T18:46:30.982Z,3.57
2017-07-05T18:48:58.555Z,3.43
2017-07-05T18:51:26.912Z,3.83
2017-07-05T18:53:54.479Z,3.00
2017-07-05T18:56:22.075Z,5.33
2017-07-05T18:58:49.689Z,3.93
2017-07-05T19:01:17.312Z,3.50
2017-07-05T19:03:44.892Z,3.57
2017-07-05T19:06:12.481Z,4.10
2017-07-05T19:08:40.032Z,3.33
2017-07-05T19:11:07.610Z,4.43
2017-07-05T19:13:35.222Z,4.10
2017-07-05T19:16:02.839Z,3.50
2017-07-05T19:18:30.400Z,3.60
2017-07-05T19:20:58.131Z,4.70
2017-07-05T19:23:25.698Z,3.90
2017-07-05T19:25:53.281Z,3.47
2017-07-05T19:28:20.870Z,3.50
2017-07-05T19:30:49.214Z,3.80
2017-07-05T19:33:16.783Z,3.80
2017-07-05T19:35:44.357Z,4.03
2017-07-05T19:38:13.232Z,3.70
2017-07-05T19:40:40.809Z,5.03
2017-07-05T19:43:09.143Z,3.87
2017-07-05T19:45:36.733Z,3.80
2017-07-05T19:48:04.340Z,4.60
2017-07-05T19:50:31.967Z,3.80
2017-07-05T19:53:00.521Z,4.60
2017-07-05T19:55:28.254Z,4.00
2017-07-05T19:57:55.908Z,4.50
2017-07-05T20:00:23.594Z,4.13
2017-07-05T20:02:51.264Z,4.90
2017-07-05T20:05:19.129Z,4.60
2017-07-05T20:07:46.736Z,4.07
2017-07-05T20:10:14.323Z,4.43
2017-07-05T20:12:41.927Z,4.20
2017-07-05T20:15:09.586Z,4.17
2017-07-05T20:17:37.957Z,4.80
2017-07-05T20:20:05.579Z,4.50
2017-07-05T20:22:33.152Z,4.57
2017-07-05T20:25:00.773Z,4.53
2017-07-05T20:27:28.389Z,4.20
2017-07-05T20:29:55.947Z,3.93
2017-07-05T20:32:23.529Z,4.13
2017-07-05T20:34:51.872Z,4.90
2017-07-05T20:37:19.471Z,5.33
2017-07-05T20:39:47.827Z,4.27
2017-07-05T20:42:15.396Z,4.73
2017-07-05T20:44:43.732Z,5.10
2017-07-05T20:47:11.323Z,3.90
2017-07-05T20:49:38.933Z,4.80
2017-07-05T20:52:06.563Z,4.27
2017-07-05T20:54:34.160Z,4.90
2017-07-05T20:57:01.741Z,4.97
2017-07-05T20:59:29.345Z,4.80
2017-07-05T21:01:56.920Z,4.90
2017-07-05T21:04:24.497Z,4.30
2017-07-05T21:06:52.083Z,5.03
2017-07-05T21:09:19.656Z,4.70
2017-07-05T21:11:47.271Z,4.87
2017-07-05T21:14:14.833Z,5.20
2017-07-05T21:16:42.388Z,4.80
2017-07-05T21:19:09.967Z,5.10
2017-07-05T21:21:37.540Z,5.40
2017-07-05T21:24:05.110Z,4.80
2017-07-05T21:26:32.681Z,4.80
2017-07-05T21:29:00.293Z,4.73
2017-07-05T21:31:27.878Z,4.80
2017-07-05T21:33:55.465Z,4.87
2017-07-05T21:36:23.046Z,5.40
2017-07-05T21:38:50.617Z,4.60
2017-07-05T21:41:18.189Z,4.80
2017-07-05T21:43:45.753Z,4.10
2017-07-05T21:46:13.306Z,5.30
2017-07-05T21:48:40.933Z,4.87
2017-07-05T21:51:08.563Z,5.27
2017-07-05T21:53:36.178Z,5.20
2017-07-05T21:56:03.737Z,5.60
2017-07-05T21:58:31.317Z,5.47
2017-07-05T22:00:59.001Z,5.20
2017-07-05T22:03:26.588Z,5.30
2017-07-05T22:05:54.243Z,5.27
2017-07-05T22:08:21.832Z,5.00
2017-07-05T22:10:49.378Z,5.50
2017-07-05T22:13:16.972Z,6.50
2017-07-05T22:15:44.544Z,5.43
2017-07-05T22:18:12.150Z,5.90
2017-07-05T22:20:39.727Z,6.43
2017-07-05T22:23:07.358Z,5.90
2017-07-05T22:25:34.947Z,5.20
2017-07-05T22:28:02.542Z,5.47
2017-07-05T22:30:30.127Z,5.97
2017-07-05T22:32:58.464Z,5.47
2017-07-05T22:35:26.027Z,6.07
2017-07-05T22:37:53.610Z,5.97
2017-07-05T22:40:21.935Z,5.40
2017-07-05T22:42:49.762Z,5.53
2017-07-05T22:45:17.322Z,5.40
2017-07-05T22:47:45.652Z,6.30
2017-07-05T22:50:13.254Z,5.70
2017-07-05T22:52:41.586Z,5.40
2017-07-05T22:55:09.169Z,5.73
2017-07-05T22:57:36.741Z,6.30
2017-07-05T23:00:04.302Z,5.10
2017-07-05T23:02:32.634Z,5.00
2017-07-05T23:05:00.213Z,5.83
2017-07-05T23:07:27.781Z,5.93
2017-07-05T23:09:55.379Z,5.27
2017-07-05T23:12:22.970Z,5.13
2017-07-05T23:14:50.565Z,5.27
2017-07-05T23:17:18.131Z,5.33
2017-07-05T23:19:46.472Z,5.40
2017-07-05T23:22:14.020Z,5.47
2017-07-05T23:24:41.605Z,6.10
2017-07-05T23:27:09.186Z,5.03
2017-07-05T23:29:37.534Z,5.47
2017-07-05T23:32:05.098Z,5.37
2017-07-05T23:34:32.676Z,5.80
2017-07-05T23:37:00.248Z,5.00
2017-07-05T23:39:28.612Z,5.10
2017-07-05T23:41:56.947Z,5.00
2017-07-05T23:44:24.531Z,4.93
2017-07-05T23:46:52.108Z,5.47
2017-07-05T23:49:19.685Z,5.03
2017-07-05T23:51:47.246Z,4.93
2017-07-05T23:54:14.828Z,5.10
2017-07-05T23:56:42.394Z,5.07
2017-07-05T23:59:09.973Z,5.27
